createdAt,value
2019-02-20T00:01:19.733Z,77.60
2019-02-20T00:03:45.945Z,77.60
2019-02-20T00:06:12.178Z,77.40
2019-02-20T00:08:38.449Z,77.30
2019-02-20T00:11:07.352Z,77.10
2019-02-20T00:13:33.536Z,77.30
2019-02-20T00:15:59.721Z,77.20
2019-02-20T00:18:26.101Z,77.40
2019-02-20T00:20:52.416Z,77.40
2019-02-20T00:23:18.730Z,77.30
2019-02-20T00:25:44.898Z,77.40
2019-02-20T00:28:11.093Z,77.40
2019-02-20T00:30:39.999Z,77.80
2019-02-20T00:33:06.176Z,77.80
2019-02-20T00:35:32.433Z,77.80
2019-02-20T00:37:58.599Z,77.90
2019-02-20T00:40:24.833Z,78.00
2019-02-20T00:42:50.997Z,78.10
2019-02-20T00:45:31.011Z,78.20
2019-02-20T00:48:01.873Z,78.10
2019-02-20T00:50:29.952Z,78.30
2019-02-20T00:53:01.080Z,78.60
2019-02-20T00:55:29.932Z,78.60
2019-02-20T00:57:56.132Z,78.50
2019-02-20T01:00:22.368Z,79.40
2019-02-20T01:02:48.548Z,78.70
2019-02-20T01:05:14.987Z,78.70
2019-02-20T01:07:41.171Z,78.70
2019-02-20T01:10:07.456Z,78.60
2019-02-20T01:12:33.724Z,78.60
2019-02-20T01:14:59.932Z,78.60
2019-02-20T01:17:26.113Z,78.40
2019-02-20T01:19:52.435Z,78.60
2019-02-20T01:22:18.812Z,78.70
2019-02-20T01:24:45.010Z,78.80
2019-02-20T01:27:11.192Z,79.60
2019-02-20T01:29:37.379Z,79.10
2019-02-20T01:32:03.568Z,78.90
2019-02-20T01:34:29.750Z,78.90
2019-02-20T01:36:55.940Z,78.70
2019-02-20T01:39:22.162Z,78.80
2019-02-20T01:41:48.409Z,78.60
2019-02-20T01:44:14.645Z,78.80
2019-02-20T01:46:40.828Z,79.10
2019-02-20T01:49:07.015Z,79.10
2019-02-20T01:51:33.198Z,79.10
2019-02-20T01:53:59.364Z,79.20
2019-02-20T01:56:25.546Z,79.30
2019-02-20T01:58:51.738Z,79.20
2019-02-20T02:01:17.973Z,79.20
2019-02-20T02:03:44.284Z,79.00
2019-02-20T02:06:10.566Z,79.00
2019-02-20T02:08:39.356Z,79.00
2019-02-20T02:11:05.620Z,78.80
2019-02-20T02:13:31.858Z,79.10
2019-02-20T02:15:58.115Z,79.00
2019-02-20T02:18:24.345Z,79.30
2019-02-20T02:20:50.620Z,78.90
2019-02-20T02:23:19.788Z,79.10
2019-02-20T02:25:47.690Z,79.20
2019-02-20T02:28:13.963Z,79.20
2019-02-20T02:30:40.211Z,79.10
2019-02-20T02:33:06.427Z,79.00
2019-02-20T02:35:32.579Z,79.30
2019-02-20T02:37:58.772Z,79.10
2019-02-20T02:40:24.950Z,79.00
2019-02-20T02:42:57.292Z,79.10
2019-02-20T02:45:26.004Z,78.90
2019-02-20T02:47:52.189Z,79.00
2019-02-20T02:50:18.407Z,79.00
2019-02-20T02:52:44.649Z,79.10
2019-02-20T02:55:10.866Z,78.90
2019-02-20T02:57:37.054Z,78.90
2019-02-20T03:00:06.360Z,79.00
2019-02-20T03:02:32.526Z,79.10
2019-02-20T03:04:58.807Z,79.10
2019-02-20T03:07:24.970Z,79.40
2019-02-20T03:09:51.163Z,79.60
2019-02-20T03:12:23.475Z,79.40
2019-02-20T03:14:52.219Z,79.60
2019-02-20T03:17:18.456Z,79.60
2019-02-20T03:19:44.643Z,79.70
2019-02-20T03:22:10.819Z,79.50
2019-02-20T03:24:36.965Z,79.30
2019-02-20T03:27:03.149Z,79.10
2019-02-20T03:29:29.325Z,79.00
2019-02-20T03:31:55.547Z,79.00
2019-02-20T03:34:21.864Z,79.00
2019-02-20T03:36:48.031Z,79.10
2019-02-20T03:39:14.209Z,79.10
2019-02-20T03:41:40.365Z,79.40
2019-02-20T03:44:09.385Z,78.90
2019-02-20T03:46:35.538Z,79.20
2019-02-20T03:49:01.774Z,79.20
2019-02-20T03:51:28.090Z,79.10
2019-02-20T03:53:54.350Z,78.90
2019-02-20T03:56:20.715Z,78.60
2019-02-20T03:58:46.922Z,79.00
2019-02-20T04:01:13.099Z,78.90
2019-02-20T04:03:39.266Z,79.10
2019-02-20T04:06:05.488Z,79.10
2019-02-20T04:08:31.722Z,78.90
2019-02-20T04:10:57.885Z,78.80
2019-02-20T04:13:26.687Z,79.00
2019-02-20T04:15:52.869Z,79.00
2019-02-20T04:18:19.059Z,79.30
2019-02-20T04:20:45.227Z,79.10
2019-02-20T04:23:26.559Z,79.00
2019-02-20T04:25:55.343Z,79.00
2019-02-20T04:28:21.565Z,79.00
2019-02-20T04:30:47.787Z,79.30
2019-02-20T04:33:13.960Z,79.10
2019-02-20T04:35:40.164Z,79.20
2019-02-20T04:38:06.332Z,78.90
2019-02-20T04:40:32.515Z,78.90
2019-02-20T04:42:58.751Z,79.00
2019-02-20T04:45:27.587Z,79.10
2019-02-20T04:47:53.784Z,79.10
2019-02-20T04:50:20.016Z,78.90
2019-02-20T04:52:46.175Z,78.80
2019-02-20T04:55:12.387Z,78.60
2019-02-20T04:57:38.546Z,78.50
2019-02-20T05:00:10.452Z,78.70
2019-02-20T05:02:39.205Z,78.90
2019-02-20T05:05:05.661Z,78.90
2019-02-20T05:07:34.632Z,79.00
2019-02-20T05:10:00.846Z,78.90
2019-02-20T05:12:30.104Z,79.10
2019-02-20T05:14:56.328Z,78.90
2019-02-20T05:17:22.503Z,78.90
2019-02-20T05:19:48.701Z,79.00
2019-02-20T05:22:14.874Z,79.70
2019-02-20T05:24:41.141Z,78.80
2019-02-20T05:27:07.340Z,78.80
2019-02-20T05:29:33.636Z,78.60
2019-02-20T05:31:59.812Z,78.80
2019-02-20T05:34:25.992Z,78.70
2019-02-20T05:36:52.170Z,78.80
2019-02-20T05:39:30.480Z,78.90
2019-02-20T05:41:56.720Z,78.90
2019-02-20T05:44:22.940Z,78.90
2019-02-20T05:46:49.245Z,78.90
2019-02-20T05:49:18.117Z,78.80
2019-02-20T05:51:44.287Z,78.80
2019-02-20T05:54:33.863Z,78.90
2019-02-20T05:57:04.298Z,78.80
2019-02-20T05:59:30.567Z,78.90
2019-02-20T06:01:59.362Z,78.80
2019-02-20T06:04:25.637Z,78.80
2019-02-20T06:06:51.806Z,78.90
2019-02-20T06:09:17.985Z,78.80
2019-02-20T06:11:44.182Z,78.90
2019-02-20T06:14:10.361Z,78.80
2019-02-20T06:16:36.600Z,78.80
2019-02-20T06:19:02.761Z,78.90
2019-02-20T06:21:29.025Z,78.90
2019-02-20T06:23:55.193Z,79.10
2019-02-20T06:26:21.383Z,79.10
2019-02-20T06:28:47.549Z,79.10
2019-02-20T06:31:13.748Z,79.10
2019-02-20T06:33:39.891Z,79.20
2019-02-20T06:36:06.089Z,79.20
2019-02-20T06:38:35.284Z,79.10
2019-02-20T06:41:04.072Z,79.30
2019-02-20T06:43:30.287Z,79.20
2019-02-20T06:45:56.505Z,79.10
2019-02-20T06:48:22.714Z,79.10
2019-02-20T06:50:48.908Z,79.10
2019-02-20T06:53:15.185Z,79.30
2019-02-20T06:55:41.380Z,79.30
2019-02-20T06:58:07.563Z,79.20
2019-02-20T07:00:33.883Z,79.20
2019-02-20T07:03:00.051Z,79.30
2019-02-20T07:05:31.328Z,79.30
2019-02-20T07:08:51.886Z,79.30
2019-02-20T07:11:27.556Z,79.50
2019-02-20T07:14:15.560Z,79.40
2019-02-20T07:16:57.804Z,79.50
2019-02-20T07:19:30.668Z,79.40
2019-02-20T07:22:09.355Z,79.70
2019-02-20T07:24:39.352Z,79.80
2019-02-20T07:27:15.777Z,80.80
2019-02-20T07:29:48.664Z,80.20
2019-02-20T07:32:16.231Z,80.10
2019-02-20T07:34:42.466Z,80.20
2019-02-20T07:37:11.604Z,80.00
2019-02-20T07:39:40.668Z,79.90
2019-02-20T07:42:06.927Z,80.00
2019-02-20T07:44:33.290Z,79.70
2019-02-20T07:47:17.864Z,79.40
2019-02-20T07:49:44.056Z,79.30
2019-02-20T07:52:10.217Z,79.60
2019-02-20T07:54:36.440Z,79.50
2019-02-20T07:57:02.615Z,79.60
2019-02-20T07:59:29.772Z,79.50
2019-02-20T08:01:55.927Z,79.30
2019-02-20T08:04:33.136Z,78.80
2019-02-20T08:06:59.351Z,78.90
2019-02-20T08:09:25.627Z,79.30
2019-02-20T08:11:51.860Z,79.20
2019-02-20T08:14:18.101Z,80.00
2019-02-20T08:16:52.059Z,78.50
2019-02-20T08:19:12.337Z,78.90
2019-02-20T08:21:38.501Z,78.20
2019-02-20T08:24:04.712Z,78.40
2019-02-20T08:26:30.932Z,78.90
2019-02-20T08:28:57.283Z,78.60
2019-02-20T08:31:35.647Z,78.50
2019-02-20T08:34:01.841Z,77.20
2019-02-20T08:36:27.993Z,76.90
2019-02-20T08:39:12.776Z,77.10
2019-02-20T08:41:57.871Z,77.50
2019-02-20T08:44:24.135Z,76.70
2019-02-20T08:46:50.340Z,77.00
2019-02-20T08:49:16.527Z,76.80
2019-02-20T08:51:42.755Z,76.60
2019-02-20T08:54:09.317Z,77.00
2019-02-20T08:56:53.776Z,77.10
2019-02-20T08:59:19.954Z,77.40
2019-02-20T09:01:46.155Z,77.20
2019-02-20T09:04:12.570Z,77.10
2019-02-20T09:06:38.740Z,76.70
2019-02-20T09:09:23.252Z,74.90
2019-02-20T09:11:49.583Z,75.00
2019-02-20T09:14:15.752Z,75.30
2019-02-20T09:16:41.956Z,75.40
2019-02-20T09:19:08.213Z,75.50
2019-02-20T09:21:34.376Z,74.80
2019-02-20T09:24:19.284Z,74.60
2019-02-20T09:26:45.468Z,74.20
2019-02-20T09:29:11.743Z,74.40
2019-02-20T09:31:37.984Z,74.60
2019-02-20T09:34:07.123Z,74.00
2019-02-20T09:36:33.280Z,73.70
2019-02-20T09:39:20.165Z,73.40
2019-02-20T09:41:48.839Z,73.80
2019-02-20T09:44:15.041Z,73.10
2019-02-20T09:46:41.213Z,73.60
2019-02-20T09:49:07.384Z,73.50
2019-02-20T09:51:33.535Z,73.20
2019-02-20T09:53:59.742Z,71.50
2019-02-20T09:56:25.960Z,72.70
2019-02-20T09:58:52.193Z,71.30
2019-02-20T10:01:18.453Z,70.10
2019-02-20T10:03:44.758Z,70.70
2019-02-20T10:06:12.864Z,71.70
2019-02-20T10:08:39.086Z,70.00
2019-02-20T10:11:05.269Z,70.40
2019-02-20T10:13:31.459Z,70.50
2019-02-20T10:16:07.064Z,69.90
2019-02-20T10:18:51.878Z,69.00
2019-02-20T10:21:36.953Z,70.30
2019-02-20T10:24:03.122Z,69.20
2019-02-20T10:26:29.342Z,67.20
2019-02-20T10:28:55.511Z,66.50
2019-02-20T10:31:40.063Z,66.90
2019-02-20T10:34:06.245Z,67.40
2019-02-20T10:36:32.404Z,69.00
2019-02-20T10:39:17.036Z,68.20
2019-02-20T10:41:43.219Z,68.00
2019-02-20T10:44:09.380Z,67.50
2019-02-20T10:46:35.644Z,66.70
2019-02-20T10:49:01.977Z,63.20
2019-02-20T10:51:28.227Z,64.20
2019-02-20T10:53:54.566Z,64.10
2019-02-20T10:56:39.277Z,63.80
2019-02-20T10:59:05.525Z,61.80
2019-02-20T11:01:31.802Z,61.90
2019-02-20T11:03:58.013Z,63.30
2019-02-20T11:06:27.006Z,62.70
2019-02-20T11:08:53.156Z,63.10
2019-02-20T11:11:19.329Z,62.50
2019-02-20T11:13:45.557Z,61.20
2019-02-20T11:16:11.787Z,61.80
2019-02-20T11:18:37.994Z,60.00
2019-02-20T11:21:04.168Z,61.20
2019-02-20T11:23:45.652Z,61.00
2019-02-20T11:26:17.970Z,60.20
2019-02-20T11:28:40.033Z,60.30
2019-02-20T11:31:06.296Z,60.00
2019-02-20T11:33:32.468Z,60.60
2019-02-20T11:35:58.617Z,60.60
2019-02-20T11:38:24.781Z,60.80
2019-02-20T11:41:09.128Z,61.50
2019-02-20T11:43:35.275Z,60.20
2019-02-20T11:46:01.470Z,59.30
2019-02-20T11:48:27.704Z,59.80
2019-02-20T11:50:53.888Z,59.10
2019-02-20T11:53:20.070Z,57.90
2019-02-20T11:55:46.305Z,59.00
2019-02-20T11:58:12.464Z,59.20
2019-02-20T12:00:38.628Z,59.40
2019-02-20T12:03:07.386Z,59.30
2019-02-20T12:05:33.664Z,58.40
2019-02-20T12:07:59.821Z,58.20
2019-02-20T12:10:26.101Z,58.50
2019-02-20T12:12:52.264Z,58.10
2019-02-20T12:15:21.008Z,58.10
2019-02-20T12:17:47.317Z,56.30
2019-02-20T12:20:13.503Z,57.20
2019-02-20T12:22:39.679Z,57.20
2019-02-20T12:25:09.582Z,57.20
2019-02-20T12:27:35.752Z,57.40
2019-02-20T12:30:04.356Z,55.40
2019-02-20T12:32:30.985Z,54.20
2019-02-20T12:34:57.392Z,54.60
2019-02-20T12:37:25.050Z,55.30
2019-02-20T12:40:00.636Z,54.80
2019-02-20T12:42:29.410Z,54.50
2019-02-20T12:44:58.608Z,54.90
2019-02-20T12:47:24.980Z,55.20
2019-02-20T12:49:51.547Z,56.30
2019-02-20T12:52:29.904Z,55.40
2019-02-20T12:54:58.667Z,55.30
2019-02-20T12:57:25.245Z,55.50
2019-02-20T12:59:51.480Z,54.70
2019-02-20T13:02:17.662Z,54.00
2019-02-20T13:04:43.863Z,54.70
2019-02-20T13:07:10.146Z,54.90
2019-02-20T13:09:54.887Z,53.80
2019-02-20T13:12:21.052Z,54.50
2019-02-20T13:15:07.736Z,53.20
2019-02-20T13:17:33.928Z,53.80
2019-02-20T13:20:00.310Z,54.10
2019-02-20T13:22:26.628Z,53.80
2019-02-20T13:24:52.775Z,53.60
2019-02-20T13:27:22.667Z,53.30
2019-02-20T13:29:47.000Z,53.10
2019-02-20T13:32:13.176Z,52.50
2019-02-20T13:34:39.428Z,53.00
2019-02-20T13:37:05.619Z,51.90
2019-02-20T13:39:31.889Z,52.40
2019-02-20T13:41:58.100Z,53.10
2019-02-20T13:44:24.343Z,53.70
2019-02-20T13:46:51.220Z,53.10
2019-02-20T13:49:17.601Z,54.80
2019-02-20T13:51:43.857Z,53.60
2019-02-20T13:54:10.040Z,54.70
2019-02-20T13:56:36.194Z,53.40
2019-02-20T13:59:02.361Z,53.70
2019-02-20T14:01:32.006Z,54.60
2019-02-20T14:03:58.167Z,53.80
2019-02-20T14:06:24.332Z,53.70
2019-02-20T14:08:50.775Z,52.10
2019-02-20T14:11:16.959Z,53.00
2019-02-20T14:14:02.023Z,52.60
2019-02-20T14:16:28.494Z,53.20
2019-02-20T14:19:10.063Z,52.80
2019-02-20T14:21:36.310Z,53.40
2019-02-20T14:24:03.339Z,53.50
2019-02-20T14:26:29.680Z,54.20
2019-02-20T14:29:14.266Z,52.90
2019-02-20T14:31:40.499Z,53.50
2019-02-20T14:34:08.672Z,54.20
2019-02-20T14:36:35.314Z,54.70
2019-02-20T14:39:01.527Z,54.90
2019-02-20T14:41:30.358Z,54.90
2019-02-20T14:43:56.646Z,55.70
2019-02-20T14:46:22.968Z,55.40
2019-02-20T14:48:51.813Z,55.40
2019-02-20T14:51:18.054Z,55.50
2019-02-20T14:53:44.652Z,55.30
2019-02-20T14:56:13.656Z,54.60
2019-02-20T14:58:39.815Z,55.40
2019-02-20T15:01:06.188Z,56.00
2019-02-20T15:03:35.271Z,55.10
2019-02-20T15:06:03.931Z,54.90
2019-02-20T15:08:30.182Z,55.70
2019-02-20T15:10:56.466Z,55.90
2019-02-20T15:13:41.627Z,55.80
2019-02-20T15:16:07.764Z,54.80
2019-02-20T15:18:49.263Z,55.30
2019-02-20T15:21:17.350Z,55.70
2019-02-20T15:23:50.359Z,56.30
2019-02-20T15:26:16.509Z,55.60
2019-02-20T15:28:42.709Z,56.20
2019-02-20T15:31:09.020Z,55.50
2019-02-20T15:33:35.278Z,54.30
2019-02-20T15:36:01.470Z,54.00
2019-02-20T15:38:27.674Z,54.80
2019-02-20T15:40:53.921Z,55.10
2019-02-20T15:43:23.131Z,55.00
2019-02-20T15:45:51.864Z,54.90
2019-02-20T15:48:23.305Z,55.00
2019-02-20T15:50:55.340Z,55.10
2019-02-20T15:53:21.539Z,54.90
2019-02-20T15:55:47.807Z,55.10
2019-02-20T15:58:17.985Z,55.30
2019-02-20T16:00:44.136Z,55.30
2019-02-20T16:03:10.301Z,55.00
2019-02-20T16:05:36.554Z,55.20
2019-02-20T16:08:02.891Z,55.60
2019-02-20T16:10:31.805Z,55.50
2019-02-20T16:12:57.993Z,55.50
2019-02-20T16:15:24.309Z,56.30
2019-02-20T16:18:00.244Z,55.90
2019-02-20T16:20:26.577Z,56.20
2019-02-20T16:22:55.720Z,56.20
2019-02-20T16:25:23.668Z,56.80
2019-02-20T16:27:53.160Z,56.50
2019-02-20T16:30:19.309Z,56.60
2019-02-20T16:32:45.486Z,56.40
2019-02-20T16:35:12.046Z,56.90
2019-02-20T16:37:38.471Z,57.10
2019-02-20T16:40:08.353Z,57.20
2019-02-20T16:42:34.999Z,56.50
2019-02-20T16:45:01.201Z,56.70
2019-02-20T16:47:27.398Z,56.90
2019-02-20T16:49:53.729Z,56.60
2019-02-20T16:52:22.884Z,57.20
2019-02-20T16:55:01.592Z,57.20
2019-02-20T16:57:27.783Z,57.20
2019-02-20T16:59:54.137Z,57.20
2019-02-20T17:02:20.326Z,57.10
2019-02-20T17:04:49.407Z,57.30
2019-02-20T17:07:15.573Z,57.40
2019-02-20T17:09:57.663Z,57.30
2019-02-20T17:12:23.898Z,57.30
2019-02-20T17:14:50.205Z,57.20
2019-02-20T17:17:16.526Z,57.40
2019-02-20T17:19:42.807Z,57.60
2019-02-20T17:22:11.840Z,57.80
2019-02-20T17:24:38.132Z,57.80
2019-02-20T17:27:07.147Z,57.60
2019-02-20T17:29:33.428Z,57.50
2019-02-20T17:31:59.611Z,57.60
2019-02-20T17:34:26.069Z,57.60
2019-02-20T17:37:11.115Z,57.90
2019-02-20T17:39:37.776Z,58.00
2019-02-20T17:42:03.957Z,58.20
2019-02-20T17:44:30.275Z,58.10
2019-02-20T17:46:56.447Z,58.20
2019-02-20T17:49:22.677Z,58.20
2019-02-20T17:51:48.868Z,58.30
2019-02-20T17:54:17.116Z,58.20
2019-02-20T17:56:43.162Z,58.00
2019-02-20T17:59:09.812Z,58.10
2019-02-20T18:01:36.812Z,58.20
2019-02-20T18:04:03.047Z,58.40
2019-02-20T18:06:29.265Z,58.50
2019-02-20T18:08:55.453Z,58.20
2019-02-20T18:11:21.673Z,58.40
2019-02-20T18:13:47.967Z,58.30
2019-02-20T18:16:14.247Z,58.40
2019-02-20T18:18:40.612Z,58.40
2019-02-20T18:21:06.820Z,58.60
2019-02-20T18:23:33.016Z,58.40
2019-02-20T18:25:59.183Z,58.30
2019-02-20T18:28:25.449Z,58.80
2019-02-20T18:30:51.681Z,58.30
2019-02-20T18:33:17.964Z,58.20
2019-02-20T18:35:44.153Z,58.40
2019-02-20T18:38:13.030Z,58.50
2019-02-20T18:40:39.319Z,58.70
2019-02-20T18:43:08.088Z,58.70
2019-02-20T18:45:34.272Z,58.60
2019-02-20T18:48:00.433Z,58.50
2019-02-20T18:50:29.208Z,58.40
2019-02-20T18:52:55.355Z,58.50
2019-02-20T18:55:21.534Z,58.00
2019-02-20T18:57:47.675Z,58.90
2019-02-20T19:00:20.100Z,58.90
2019-02-20T19:02:46.341Z,58.80
2019-02-20T19:05:13.510Z,58.80
2019-02-20T19:07:39.662Z,58.80
2019-02-20T19:10:15.678Z,58.90
2019-02-20T19:12:45.669Z,58.80
2019-02-20T19:15:15.792Z,58.90
2019-02-20T19:18:21.393Z,58.70
2019-02-20T19:20:56.665Z,58.90
2019-02-20T19:23:45.760Z,58.70
2019-02-20T19:26:24.398Z,58.80
2019-02-20T19:29:02.905Z,58.80
2019-02-20T19:32:00.553Z,58.80
2019-02-20T19:34:47.362Z,58.80
2019-02-20T19:37:23.276Z,58.90
2019-02-20T19:40:07.644Z,58.90
2019-02-20T19:43:01.372Z,58.80
2019-02-20T19:46:16.410Z,58.90
2019-02-20T19:48:46.618Z,58.90
2019-02-20T19:51:34.574Z,58.90
2019-02-20T19:54:13.415Z,59.00
2019-02-20T19:56:52.755Z,59.20
2019-02-20T19:59:47.267Z,59.30
2019-02-20T20:02:37.826Z,59.60
2019-02-20T20:05:47.061Z,59.60
2019-02-20T20:08:41.466Z,59.60
2019-02-20T20:11:21.351Z,59.60
2019-02-20T20:14:17.484Z,59.70
2019-02-20T20:16:51.224Z,59.80
2019-02-20T20:19:31.062Z,59.80
2019-02-20T20:22:29.503Z,59.90
2019-02-20T20:25:34.722Z,59.90
2019-02-20T20:28:26.181Z,60.00
2019-02-20T20:31:05.573Z,60.20
2019-02-20T20:34:09.671Z,60.20
2019-02-20T20:36:50.884Z,60.30
2019-02-20T20:39:23.593Z,60.40
2019-02-20T20:42:05.108Z,60.40
2019-02-20T20:44:38.028Z,60.50
2019-02-20T20:47:14.347Z,60.60
2019-02-20T20:49:58.988Z,61.80
2019-02-20T20:52:52.001Z,61.00
2019-02-20T20:55:49.791Z,62.00
2019-02-20T20:58:34.752Z,61.90
2019-02-20T21:01:21.495Z,62.30
2019-02-20T21:03:57.005Z,62.30
2019-02-20T21:06:54.524Z,62.30
2019-02-20T21:09:24.482Z,62.30
2019-02-20T21:12:00.201Z,62.30
2019-02-20T21:14:38.982Z,62.60
2019-02-20T21:17:25.702Z,62.40
2019-02-20T21:20:23.209Z,62.60
2019-02-20T21:23:07.617Z,62.50
2019-02-20T21:25:55.489Z,62.70
2019-02-20T21:28:36.834Z,62.90
2019-02-20T21:31:19.121Z,62.80
2019-02-20T21:34:10.142Z,62.60
2019-02-20T21:36:42.949Z,62.80
2019-02-20T21:39:15.867Z,62.70
2019-02-20T21:42:10.029Z,62.70
2019-02-20T21:44:46.319Z,62.80
2019-02-20T21:47:21.997Z,62.60
2019-02-20T21:50:16.498Z,62.60
2019-02-20T21:53:05.985Z,62.70
2019-02-20T21:56:09.763Z,62.80
2019-02-20T21:58:54.954Z,62.70
2019-02-20T22:01:58.948Z,62.80
2019-02-20T22:04:31.558Z,62.60
2019-02-20T22:07:10.859Z,62.70
2019-02-20T22:09:43.722Z,62.90
2019-02-20T22:12:16.584Z,63.00
2019-02-20T22:15:10.411Z,63.10
2019-02-20T22:17:48.841Z,62.90
2019-02-20T22:20:27.819Z,62.70
2019-02-20T22:23:15.585Z,62.60
2019-02-20T22:26:05.251Z,62.60
2019-02-20T22:29:09.179Z,62.80
2019-02-20T22:32:08.518Z,63.00
2019-02-20T22:34:44.724Z,63.10
2019-02-20T22:37:45.176Z,63.00
2019-02-20T22:40:17.656Z,63.00
2019-02-20T22:43:16.288Z,63.00
2019-02-20T22:45:49.055Z,63.00
2019-02-20T22:48:38.418Z,62.90
2019-02-20T22:51:23.058Z,63.00
2019-02-20T22:54:12.970Z,63.10
2019-02-20T22:57:15.787Z,63.30
2019-02-20T23:00:01.895Z,63.70
2019-02-20T23:02:41.266Z,63.30
2019-02-20T23:05:17.523Z,63.60
2019-02-20T23:07:50.228Z,63.70
2019-02-20T23:10:34.946Z,63.60
2019-02-20T23:13:10.499Z,63.90
2019-02-20T23:15:39.496Z,63.90
2019-02-20T23:18:05.656Z,63.90
2019-02-20T23:20:31.817Z,64.00
2019-02-20T23:22:57.981Z,64.10
2019-02-20T23:25:24.163Z,64.20
2019-02-20T23:27:50.332Z,64.10
2019-02-20T23:30:16.524Z,64.00
2019-02-20T23:32:43.369Z,64.10
2019-02-20T23:35:09.750Z,64.10
2019-02-20T23:37:38.523Z,64.10
2019-02-20T23:40:07.721Z,64.10
2019-02-20T23:42:33.919Z,64.10
2019-02-20T23:45:00.241Z,64.20
2019-02-20T23:47:26.608Z,64.30
2019-02-20T23:49:52.831Z,64.20
2019-02-20T23:52:18.997Z,64.20
2019-02-20T23:54:45.134Z,64.40
2019-02-20T23:57:11.367Z,64.30
2019-02-20T23:59:37.748Z,64.20
